Terminal Aerodrome Forecast
Issued by NWS

Home | Current Version | Previous Version | Text Only | Print | Product List | Glossary On
Versions: 1 2 3 4 5 6 7 8 9 10 11 12 13 14 15 16
103
FTUS45 KTFX 261742
TAFHVR
TAF
KHVR 261742Z 2618/2718 23010KT P6SM SCT200
     FM270600 10010KT P6SM BKN080
     FM271500 VRB05KT P6SM BKN100=

USA.gov is the U.S. government's official web portal to all federal, state and local government web resources and services.